Cayo, Cayo Largo del Sur Vilo Acuna Airport (MUCL)

NameCayo Largo del Sur Vilo Acuna Airport
CityCayo
CountryCuba
ICAOMUCL
IATACYO
Altitude3 m
CoordinatesGoogle Map
Live Air TrafficLiveATC.net
METARMUCL 132151Z 10011KT 9000 FEW050 31/22 Q1012
2019-10-13 21:51:00 Wind: East (100°) 5.66 m/s - Visibility: 9000 m - Temperature: 31 °C - Dew point: 22 °C - Humidity: 58.7% - Pressure: 1012 hPa
Statistics

The table below shows the detailed information of all flights to/from Cayo, Cayo Largo del Sur Vilo Acuna Airport (MUCL).